sensor_id;sensor_type;location;lat;lon;timestamp;pressure;altitude;pressure_sealevel;temperature;humidity
6096;BME280;25081;42.698;23.298;2023-04-23T00:00:35;95228.22;;;8.95;79.86
6096;BME280;25081;42.698;23.298;2023-04-23T00:02:46;95227.23;;;8.89;79.64
6096;BME280;25081;42.698;23.298;2023-04-23T00:04:56;95224.49;;;8.74;79.64
6096;BME280;25081;42.698;23.298;2023-04-23T00:07:07;95223.08;;;8.58;80.12
6096;BME280;25081;42.698;23.298;2023-04-23T00:09:18;95219.52;;;8.55;80.51
6096;BME280;25081;42.698;23.298;2023-04-23T00:11:29;95218.58;;;8.58;80.47
6096;BME280;25081;42.698;23.298;2023-04-23T00:13:41;95213.78;;;8.58;80.70
6096;BME280;25081;42.698;23.298;2023-04-23T00:15:52;95220.94;;;8.57;80.83
6096;BME280;25081;42.698;23.298;2023-04-23T00:18:03;95221.23;;;8.58;80.63
6096;BME280;25081;42.698;23.298;2023-04-23T00:20:14;95219.39;;;8.66;80.66
6096;BME280;25081;42.698;23.298;2023-04-23T00:22:24;95217.07;;;8.60;80.35
6096;BME280;25081;42.698;23.298;2023-04-23T00:24:35;95223.31;;;8.43;80.85
6096;BME280;25081;42.698;23.298;2023-04-23T00:26:45;95221.98;;;8.37;81.72
6096;BME280;25081;42.698;23.298;2023-04-23T00:28:56;95218.61;;;8.39;81.53
6096;BME280;25081;42.698;23.298;2023-04-23T00:31:06;95223.92;;;8.39;81.86
6096;BME280;25081;42.698;23.298;2023-04-23T00:33:17;95220.23;;;8.33;82.23
6096;BME280;25081;42.698;23.298;2023-04-23T00:35:27;95216.07;;;8.41;81.99
6096;BME280;25081;42.698;23.298;2023-04-23T00:37:38;95218.73;;;8.41;81.54
6096;BME280;25081;42.698;23.298;2023-04-23T00:39:49;95218.30;;;8.38;81.39
6096;BME280;25081;42.698;23.298;2023-04-23T00:41:59;95218.39;;;8.33;81.75
6096;BME280;25081;42.698;23.298;2023-04-23T00:44:10;95215.81;;;8.29;82.17
6096;BME280;25081;42.698;23.298;2023-04-23T00:46:20;95218.29;;;8.24;82.22
6096;BME280;25081;42.698;23.298;2023-04-23T00:48:31;95218.89;;;8.26;82.99
6096;BME280;25081;42.698;23.298;2023-04-23T00:50:41;95212.16;;;8.24;82.94
6096;BME280;25081;42.698;23.298;2023-04-23T00:52:52;95223.30;;;8.23;82.82
6096;BME280;25081;42.698;23.298;2023-04-23T00:55:03;95223.59;;;8.18;82.98
6096;BME280;25081;42.698;23.298;2023-04-23T00:57:13;95223.19;;;8.14;82.85
6096;BME280;25081;42.698;23.298;2023-04-23T00:59:24;95224.22;;;8.13;82.80
6096;BME280;25081;42.698;23.298;2023-04-23T01:01:34;95219.93;;;8.12;82.82
6096;BME280;25081;42.698;23.298;2023-04-23T01:03:45;95222.08;;;8.13;82.74
6096;BME280;25081;42.698;23.298;2023-04-23T01:05:55;95224.01;;;8.15;82.62
6096;BME280;25081;42.698;23.298;2023-04-23T01:08:06;95227.59;;;8.11;82.61
6096;BME280;25081;42.698;23.298;2023-04-23T01:10:16;95220.02;;;8.08;82.65
6096;BME280;25081;42.698;23.298;2023-04-23T01:12:26;95221.97;;;8.03;82.48
6096;BME280;25081;42.698;23.298;2023-04-23T01:14:38;95224.61;;;7.97;82.55
6096;BME280;25081;42.698;23.298;2023-04-23T01:16:48;95229.41;;;7.97;82.79
6096;BME280;25081;42.698;23.298;2023-04-23T01:18:59;95222.86;;;8.00;82.57
6096;BME280;25081;42.698;23.298;2023-04-23T01:21:10;95222.48;;;8.03;82.21
6096;BME280;25081;42.698;23.298;2023-04-23T01:23:20;95220.43;;;7.92;82.19
6096;BME280;25081;42.698;23.298;2023-04-23T01:25:31;95227.35;;;7.86;82.32
6096;BME280;25081;42.698;23.298;2023-04-23T01:27:42;95224.17;;;7.80;82.72
6096;BME280;25081;42.698;23.298;2023-04-23T01:29:52;95226.70;;;7.71;83.55
6096;BME280;25081;42.698;23.298;2023-04-23T01:32:03;95228.72;;;7.62;83.66
6096;BME280;25081;42.698;23.298;2023-04-23T01:34:13;95228.94;;;7.54;83.92
6096;BME280;25081;42.698;23.298;2023-04-23T01:36:24;95228.19;;;7.50;84.14
6096;BME280;25081;42.698;23.298;2023-04-23T01:38:36;95227.06;;;7.48;85.23
6096;BME280;25081;42.698;23.298;2023-04-23T01:40:47;95228.49;;;7.51;85.05
6096;BME280;25081;42.698;23.298;2023-04-23T01:42:57;95222.91;;;7.56;85.27
6096;BME280;25081;42.698;23.298;2023-04-23T01:45:10;95230.45;;;7.59;84.65
6096;BME280;25081;42.698;23.298;2023-04-23T01:47:20;95230.45;;;7.59;84.15
6096;BME280;25081;42.698;23.298;2023-04-23T01:49:32;95237.30;;;7.58;83.88
6096;BME280;25081;42.698;23.298;2023-04-23T01:51:42;95232.78;;;7.52;83.46
6096;BME280;25081;42.698;23.298;2023-04-23T01:53:53;95234.72;;;7.47;83.49
6096;BME280;25081;42.698;23.298;2023-04-23T01:56:03;95230.81;;;7.43;83.80
6096;BME280;25081;42.698;23.298;2023-04-23T01:58:14;95233.36;;;7.40;83.55
6096;BME280;25081;42.698;23.298;2023-04-23T02:00:24;95227.72;;;7.33;83.92
6096;BME280;25081;42.698;23.298;2023-04-23T02:02:35;95230.17;;;7.28;84.68
6096;BME280;25081;42.698;23.298;2023-04-23T02:04:45;95227.92;;;7.31;84.41
6096;BME280;25081;42.698;23.298;2023-04-23T02:06:55;95232.92;;;7.30;84.84
6096;BME280;25081;42.698;23.298;2023-04-23T02:09:06;95233.73;;;7.31;84.78
6096;BME280;25081;42.698;23.298;2023-04-23T02:11:16;95234.45;;;7.29;84.81
6096;BME280;25081;42.698;23.298;2023-04-23T02:13:27;95239.14;;;7.27;84.73
6096;BME280;25081;42.698;23.298;2023-04-23T02:15:37;95235.47;;;7.28;84.60
6096;BME280;25081;42.698;23.298;2023-04-23T02:17:48;95238.91;;;7.22;84.66
6096;BME280;25081;42.698;23.298;2023-04-23T02:19:59;95238.84;;;7.26;84.69
6096;BME280;25081;42.698;23.298;2023-04-23T02:22:09;95237.51;;;7.26;85.22
6096;BME280;25081;42.698;23.298;2023-04-23T02:24:20;95245.98;;;7.32;85.26
6096;BME280;25081;42.698;23.298;2023-04-23T02:26:30;95239.66;;;7.33;85.12
6096;BME280;25081;42.698;23.298;2023-04-23T02:28:41;95238.73;;;7.30;84.94
6096;BME280;25081;42.698;23.298;2023-04-23T02:30:52;95240.84;;;7.24;85.04
6096;BME280;25081;42.698;23.298;2023-04-23T02:33:02;95240.63;;;7.18;85.23
6096;BME280;25081;42.698;23.298;2023-04-23T02:35:13;95239.52;;;7.17;85.34
6096;BME280;25081;42.698;23.298;2023-04-23T02:37:23;95246.41;;;7.11;85.55
6096;BME280;25081;42.698;23.298;2023-04-23T02:39:34;95246.52;;;7.14;85.99
6096;BME280;25081;42.698;23.298;2023-04-23T02:41:44;95243.34;;;7.08;85.51
6096;BME280;25081;42.698;23.298;2023-04-23T02:43:55;95245.24;;;7.03;85.45
6096;BME280;25081;42.698;23.298;2023-04-23T02:46:05;95243.41;;;7.04;85.42
6096;BME280;25081;42.698;23.298;2023-04-23T02:48:17;95245.48;;;7.08;85.31
6096;BME280;25081;42.698;23.298;2023-04-23T02:50:28;95245.07;;;7.05;85.30
6096;BME280;25081;42.698;23.298;2023-04-23T02:52:38;95242.63;;;7.10;85.38
6096;BME280;25081;42.698;23.298;2023-04-23T02:54:49;95248.03;;;7.06;85.52
6096;BME280;25081;42.698;23.298;2023-04-23T02:56:59;95244.73;;;7.04;85.60
6096;BME280;25081;42.698;23.298;2023-04-23T02:59:10;95247.84;;;6.90;85.67
6096;BME280;25081;42.698;23.298;2023-04-23T03:01:20;95249.42;;;6.84;86.37
6096;BME280;25081;42.698;23.298;2023-04-23T03:03:31;95247.64;;;6.92;86.76
6096;BME280;25081;42.698;23.298;2023-04-23T03:05:41;95249.42;;;7.02;86.33
6096;BME280;25081;42.698;23.298;2023-04-23T03:07:51;95251.86;;;6.97;85.94
6096;BME280;25081;42.698;23.298;2023-04-23T03:10:02;95251.61;;;6.92;86.03
6096;BME280;25081;42.698;23.298;2023-04-23T03:12:13;95251.00;;;6.89;86.14
6096;BME280;25081;42.698;23.298;2023-04-23T03:14:23;95255.23;;;6.84;86.25
6096;BME280;25081;42.698;23.298;2023-04-23T03:16:34;95255.54;;;6.85;86.71
6096;BME280;25081;42.698;23.298;2023-04-23T03:18:44;95251.20;;;6.95;86.61
6096;BME280;25081;42.698;23.298;2023-04-23T03:20:54;95261.64;;;6.96;86.44
6096;BME280;25081;42.698;23.298;2023-04-23T03:23:05;95253.39;;;7.02;86.21
6096;BME280;25081;42.698;23.298;2023-04-23T03:25:16;95263.69;;;7.01;86.09
6096;BME280;25081;42.698;23.298;2023-04-23T03:27:26;95264.16;;;6.94;86.34
6096;BME280;25081;42.698;23.298;2023-04-23T03:29:37;95261.99;;;6.86;86.65
6096;BME280;25081;42.698;23.298;2023-04-23T03:31:47;95267.41;;;6.89;86.81
6096;BME280;25081;42.698;23.298;2023-04-23T03:33:58;95262.50;;;6.86;86.74
6096;BME280;25081;42.698;23.298;2023-04-23T03:36:08;95267.30;;;6.86;86.72
6096;BME280;25081;42.698;23.298;2023-04-23T03:38:19;95265.97;;;6.86;86.89
6096;BME280;25081;42.698;23.298;2023-04-23T03:40:30;95266.74;;;6.98;86.68
6096;BME280;25081;42.698;23.298;2023-04-23T03:42:40;95264.95;;;7.05;86.05
6096;BME280;25081;42.698;23.298;2023-04-23T03:44:51;95268.42;;;7.05;85.55
6096;BME280;25081;42.698;23.298;2023-04-23T03:47:01;95261.59;;;7.07;85.24
6096;BME280;25081;42.698;23.298;2023-04-23T03:49:12;95267.51;;;7.09;85.27
6096;BME280;25081;42.698;23.298;2023-04-23T03:51:22;95265.11;;;7.21;85.25
6096;BME280;25081;42.698;23.298;2023-04-23T03:53:33;95266.74;;;7.22;84.89
6096;BME280;25081;42.698;23.298;2023-04-23T03:55:44;95271.98;;;7.26;84.72
6096;BME280;25081;42.698;23.298;2023-04-23T03:57:55;95267.91;;;7.30;84.63
6096;BME280;25081;42.698;23.298;2023-04-23T04:00:07;95272.84;;;7.39;84.31
6096;BME280;25081;42.698;23.298;2023-04-23T04:02:18;95273.89;;;7.52;84.26
6096;BME280;25081;42.698;23.298;2023-04-23T04:04:28;95278.24;;;7.66;83.89
6096;BME280;25081;42.698;23.298;2023-04-23T04:06:41;95278.38;;;7.75;83.31
6096;BME280;25081;42.698;23.298;2023-04-23T04:08:51;95277.17;;;7.84;82.98
6096;BME280;25081;42.698;23.298;2023-04-23T04:11:02;95280.53;;;7.89;82.61
6096;BME280;25081;42.698;23.298;2023-04-23T04:13:13;95282.78;;;7.85;82.51
6096;BME280;25081;42.698;23.298;2023-04-23T04:15:23;95277.41;;;8.02;82.30
6096;BME280;25081;42.698;23.298;2023-04-23T04:17:34;95277.80;;;7.93;82.14
6096;BME280;25081;42.698;23.298;2023-04-23T04:19:44;95282.59;;;8.00;82.30
6096;BME280;25081;42.698;23.298;2023-04-23T04:21:55;95280.67;;;8.04;81.89
6096;BME280;25081;42.698;23.298;2023-04-23T04:24:06;95281.60;;;8.01;81.75
6096;BME280;25081;42.698;23.298;2023-04-23T04:26:17;95280.97;;;7.92;81.80
6096;BME280;25081;42.698;23.298;2023-04-23T04:28:27;95290.56;;;7.93;81.86
6096;BME280;25081;42.698;23.298;2023-04-23T04:30:38;95289.62;;;7.90;82.02
6096;BME280;25081;42.698;23.298;2023-04-23T04:32:48;95288.11;;;7.98;82.09
6096;BME280;25081;42.698;23.298;2023-04-23T04:34:59;95287.84;;;8.11;81.29
6096;BME280;25081;42.698;23.298;2023-04-23T04:37:09;95290.48;;;8.17;81.04
6096;BME280;25081;42.698;23.298;2023-04-23T04:39:20;95294.16;;;8.16;81.16
6096;BME280;25081;42.698;23.298;2023-04-23T04:41:31;95295.92;;;8.33;80.21
6096;BME280;25081;42.698;23.298;2023-04-23T04:43:41;95294.22;;;8.36;80.11
6096;BME280;25081;42.698;23.298;2023-04-23T04:45:52;95296.38;;;8.50;79.38
6096;BME280;25081;42.698;23.298;2023-04-23T04:48:03;95295.34;;;8.64;78.87
6096;BME280;25081;42.698;23.298;2023-04-23T04:50:14;95299.22;;;8.88;78.07
6096;BME280;25081;42.698;23.298;2023-04-23T04:52:25;95296.91;;;9.11;77.24
6096;BME280;25081;42.698;23.298;2023-04-23T04:54:36;95298.50;;;9.26;76.00
6096;BME280;25081;42.698;23.298;2023-04-23T04:56:46;95306.30;;;9.21;75.70
6096;BME280;25081;42.698;23.298;2023-04-23T04:58:57;95302.92;;;9.16;75.90
6096;BME280;25081;42.698;23.298;2023-04-23T05:01:07;95302.83;;;9.20;75.82
6096;BME280;25081;42.698;23.298;2023-04-23T05:03:17;95302.78;;;9.33;75.84
6096;BME280;25081;42.698;23.298;2023-04-23T05:05:28;95307.42;;;9.58;74.92
6096;BME280;25081;42.698;23.298;2023-04-23T05:07:39;95304.16;;;10.32;72.78
6096;BME280;25081;42.698;23.298;2023-04-23T05:09:49;95302.88;;;11.34;67.78
6096;BME280;25081;42.698;23.298;2023-04-23T05:12:00;95297.53;;;11.62;68.04
6096;BME280;25081;42.698;23.298;2023-04-23T05:14:11;95294.95;;;12.33;64.19
6096;BME280;25081;42.698;23.298;2023-04-23T05:16:21;95293.60;;;13.10;61.22
6096;BME280;25081;42.698;23.298;2023-04-23T05:18:32;95290.55;;;14.20;60.16
6096;BME280;25081;42.698;23.298;2023-04-23T05:20:42;95294.71;;;12.88;60.13
6096;BME280;25081;42.698;23.298;2023-04-23T05:22:53;95305.60;;;11.73;63.91
6096;BME280;25081;42.698;23.298;2023-04-23T05:25:05;95302.95;;;12.54;63.32
6096;BME280;25081;42.698;23.298;2023-04-23T05:27:16;95294.28;;;13.90;59.55
6096;BME280;25081;42.698;23.298;2023-04-23T05:29:26;95299.48;;;14.68;55.64
6096;BME280;25081;42.698;23.298;2023-04-23T05:31:37;95300.55;;;15.37;54.02
6096;BME280;25081;42.698;23.298;2023-04-23T05:33:47;95292.55;;;16.27;50.63
6096;BME280;25081;42.698;23.298;2023-04-23T05:35:58;95294.83;;;16.13;50.52
6096;BME280;25081;42.698;23.298;2023-04-23T05:38:08;95295.35;;;16.67;49.62
6096;BME280;25081;42.698;23.298;2023-04-23T05:40:19;95302.38;;;17.34;47.74
6096;BME280;25081;42.698;23.298;2023-04-23T05:42:30;95302.38;;;17.34;47.74
6096;BME280;25081;42.698;23.298;2023-04-23T05:44:40;95296.09;;;17.19;47.59
6096;BME280;25081;42.698;23.298;2023-04-23T05:46:51;95295.03;;;17.25;47.30
6096;BME280;25081;42.698;23.298;2023-04-23T05:49:01;95292.68;;;17.36;46.98
6096;BME280;25081;42.698;23.298;2023-04-23T05:51:12;95297.55;;;17.81;46.99
6096;BME280;25081;42.698;23.298;2023-04-23T05:53:22;95295.08;;;18.52;44.23
6096;BME280;25081;42.698;23.298;2023-04-23T05:55:33;95298.11;;;18.71;43.51
6096;BME280;25081;42.698;23.298;2023-04-23T05:57:43;95301.59;;;18.54;44.40
6096;BME280;25081;42.698;23.298;2023-04-23T05:59:54;95302.41;;;17.84;45.00
6096;BME280;25081;42.698;23.298;2023-04-23T06:02:04;95309.10;;;18.37;44.22
6096;BME280;25081;42.698;23.298;2023-04-23T06:04:15;95304.19;;;18.21;44.50
6096;BME280;25081;42.698;23.298;2023-04-23T06:06:25;95305.03;;;18.29;43.61
6096;BME280;25081;42.698;23.298;2023-04-23T06:08:36;95301.06;;;17.84;45.06
6096;BME280;25081;42.698;23.298;2023-04-23T06:10:46;95299.49;;;18.74;44.69
6096;BME280;25081;42.698;23.298;2023-04-23T06:12:57;95301.11;;;18.98;43.00
6096;BME280;25081;42.698;23.298;2023-04-23T06:15:09;95303.51;;;19.70;41.73
6096;BME280;25081;42.698;23.298;2023-04-23T06:17:19;95303.03;;;18.01;44.21
6096;BME280;25081;42.698;23.298;2023-04-23T06:19:30;95298.41;;;18.75;43.67
6096;BME280;25081;42.698;23.298;2023-04-23T06:21:40;95298.68;;;19.32;42.53
6096;BME280;25081;42.698;23.298;2023-04-23T06:23:51;95290.69;;;19.96;41.81
6096;BME280;25081;42.698;23.298;2023-04-23T06:26:01;95311.84;;;14.41;53.88
6096;BME280;25081;42.698;23.298;2023-04-23T06:28:12;95311.84;;;14.41;53.88
6096;BME280;25081;42.698;23.298;2023-04-23T06:30:23;95306.53;;;14.15;55.46
6096;BME280;25081;42.698;23.298;2023-04-23T06:32:33;95303.91;;;14.94;54.18
6096;BME280;25081;42.698;23.298;2023-04-23T06:34:44;95285.94;;;17.36;47.06
6096;BME280;25081;42.698;23.298;2023-04-23T06:36:55;95285.94;;;17.36;47.06
6096;BME280;25081;42.698;23.298;2023-04-23T06:39:05;95333.97;;;18.44;45.86
6096;BME280;25081;42.698;23.298;2023-04-23T06:41:16;95299.06;;;18.22;45.77
6096;BME280;25081;42.698;23.298;2023-04-23T06:43:26;95303.27;;;18.78;44.75
6096;BME280;25081;42.698;23.298;2023-04-23T06:45:38;95294.70;;;20.07;42.25
6096;BME280;25081;42.698;23.298;2023-04-23T06:47:48;95295.25;;;20.11;41.29
6096;BME280;25081;42.698;23.298;2023-04-23T06:49:59;95291.11;;;20.78;40.47
6096;BME280;25081;42.698;23.298;2023-04-23T06:52:09;95290.13;;;21.64;38.22
6096;BME280;25081;42.698;23.298;2023-04-23T06:54:20;95289.58;;;22.15;37.04
6096;BME280;25081;42.698;23.298;2023-04-23T06:56:30;95284.94;;;22.39;37.23
6096;BME280;25081;42.698;23.298;2023-04-23T06:58:41;95287.03;;;22.64;36.55
6096;BME280;25081;42.698;23.298;2023-04-23T07:00:51;95290.59;;;22.80;36.12
6096;BME280;25081;42.698;23.298;2023-04-23T07:03:02;95286.52;;;22.62;36.36
6096;BME280;25081;42.698;23.298;2023-04-23T07:05:12;95286.17;;;22.66;36.06
6096;BME280;25081;42.698;23.298;2023-04-23T07:07:23;95281.11;;;22.97;35.74
6096;BME280;25081;42.698;23.298;2023-04-23T07:09:33;95288.80;;;23.27;35.49
6096;BME280;25081;42.698;23.298;2023-04-23T07:11:44;95284.86;;;21.75;37.49
6096;BME280;25081;42.698;23.298;2023-04-23T07:13:54;95286.19;;;22.25;37.19
6096;BME280;25081;42.698;23.298;2023-04-23T07:16:06;95278.32;;;22.64;36.36
6096;BME280;25081;42.698;23.298;2023-04-23T07:18:16;95284.41;;;22.75;35.98
6096;BME280;25081;42.698;23.298;2023-04-23T07:20:26;95281.03;;;22.00;37.79
6096;BME280;25081;42.698;23.298;2023-04-23T07:22:37;95280.02;;;22.39;37.52
6096;BME280;25081;42.698;23.298;2023-04-23T07:24:47;95278.31;;;22.45;37.34
6096;BME280;25081;42.698;23.298;2023-04-23T07:26:58;95280.27;;;21.73;38.47
6096;BME280;25081;42.698;23.298;2023-04-23T07:29:08;95277.17;;;19.99;41.64
6096;BME280;25081;42.698;23.298;2023-04-23T07:31:19;95282.23;;;21.38;39.66
6096;BME280;25081;42.698;23.298;2023-04-23T07:33:30;95291.37;;;18.79;45.19
6096;BME280;25081;42.698;23.298;2023-04-23T07:35:40;95280.75;;;19.82;43.40
6096;BME280;25081;42.698;23.298;2023-04-23T07:37:51;95278.27;;;20.52;40.41
6096;BME280;25081;42.698;23.298;2023-04-23T07:40:02;95277.44;;;20.54;40.97
6096;BME280;25081;42.698;23.298;2023-04-23T07:42:13;95282.72;;;18.69;46.34
6096;BME280;25081;42.698;23.298;2023-04-23T07:44:23;95276.54;;;21.06;40.78
6096;BME280;25081;42.698;23.298;2023-04-23T07:46:34;95277.36;;;22.15;38.46
6096;BME280;25081;42.698;23.298;2023-04-23T07:48:44;95276.44;;;22.00;38.56
6096;BME280;25081;42.698;23.298;2023-04-23T07:50:55;95266.93;;;22.00;37.79
6096;BME280;25081;42.698;23.298;2023-04-23T07:53:05;95269.80;;;22.52;37.69
6096;BME280;25081;42.698;23.298;2023-04-23T07:55:16;95273.20;;;22.22;37.56
6096;BME280;25081;42.698;23.298;2023-04-23T07:57:26;95279.05;;;20.58;41.23
6096;BME280;25081;42.698;23.298;2023-04-23T07:59:37;95271.93;;;20.15;41.32
6096;BME280;25081;42.698;23.298;2023-04-23T08:01:48;95270.84;;;21.39;39.71
6096;BME280;25081;42.698;23.298;2023-04-23T08:03:58;95272.98;;;22.75;37.17
6096;BME280;25081;42.698;23.298;2023-04-23T08:06:09;95270.44;;;21.51;38.90
6096;BME280;25081;42.698;23.298;2023-04-23T08:08:20;95273.66;;;22.30;37.71
6096;BME280;25081;42.698;23.298;2023-04-23T08:10:30;95264.96;;;22.87;36.86
6096;BME280;25081;42.698;23.298;2023-04-23T08:12:41;95272.20;;;23.75;35.34
6096;BME280;25081;42.698;23.298;2023-04-23T08:14:51;95267.82;;;22.95;35.73
6096;BME280;25081;42.698;23.298;2023-04-23T08:17:02;95261.56;;;22.57;37.46
6096;BME280;25081;42.698;23.298;2023-04-23T08:19:12;95260.33;;;24.10;34.45
6096;BME280;25081;42.698;23.298;2023-04-23T08:21:23;95261.80;;;23.31;35.20
6096;BME280;25081;42.698;23.298;2023-04-23T08:23:33;95258.59;;;22.37;37.00
6096;BME280;25081;42.698;23.298;2023-04-23T08:25:44;95266.23;;;20.17;40.50
6096;BME280;25081;42.698;23.298;2023-04-23T08:27:54;95267.52;;;19.72;41.78
6096;BME280;25081;42.698;23.298;2023-04-23T08:30:07;95264.27;;;19.73;41.31
6096;BME280;25081;42.698;23.298;2023-04-23T08:32:18;95271.43;;;17.39;47.14
6096;BME280;25081;42.698;23.298;2023-04-23T08:34:28;95256.11;;;20.84;41.47
6096;BME280;25081;42.698;23.298;2023-04-23T08:36:39;95256.19;;;20.72;40.52
6096;BME280;25081;42.698;23.298;2023-04-23T08:38:49;95244.63;;;21.80;38.51
6096;BME280;25081;42.698;23.298;2023-04-23T08:41:00;95239.67;;;22.67;36.90
6096;BME280;25081;42.698;23.298;2023-04-23T08:43:16;95251.36;;;21.00;39.88
6096;BME280;25081;42.698;23.298;2023-04-23T08:45:23;95241.14;;;21.53;38.58
6096;BME280;25081;42.698;23.298;2023-04-23T08:47:33;95242.01;;;21.17;39.71
6096;BME280;25081;42.698;23.298;2023-04-23T08:49:44;95254.28;;;19.48;42.58
6096;BME280;25081;42.698;23.298;2023-04-23T08:51:54;95247.34;;;18.96;43.94
6096;BME280;25081;42.698;23.298;2023-04-23T08:54:05;95238.13;;;21.23;39.57
6096;BME280;25081;42.698;23.298;2023-04-23T08:56:15;95241.06;;;22.83;36.17
6096;BME280;25081;42.698;23.298;2023-04-23T08:58:26;95231.55;;;22.30;37.17
6096;BME280;25081;42.698;23.298;2023-04-23T09:00:36;95243.52;;;20.62;38.91
6096;BME280;25081;42.698;23.298;2023-04-23T09:02:47;95240.30;;;19.15;42.79
6096;BME280;25081;42.698;23.298;2023-04-23T09:04:57;95236.94;;;19.75;42.06
6096;BME280;25081;42.698;23.298;2023-04-23T09:07:08;95240.77;;;19.53;41.42
6096;BME280;25081;42.698;23.298;2023-04-23T09:09:18;95232.48;;;21.19;39.77
6096;BME280;25081;42.698;23.298;2023-04-23T09:11:29;95221.71;;;23.36;35.81
6096;BME280;25081;42.698;23.298;2023-04-23T09:13:39;95224.25;;;24.43;33.48
6096;BME280;25081;42.698;23.298;2023-04-23T09:15:50;95218.23;;;24.43;32.49
6096;BME280;25081;42.698;23.298;2023-04-23T09:18:01;95222.36;;;23.61;33.48
6096;BME280;25081;42.698;23.298;2023-04-23T09:20:12;95228.85;;;22.46;35.46
6096;BME280;25081;42.698;23.298;2023-04-23T09:22:39;95218.53;;;22.45;35.30
6096;BME280;25081;42.698;23.298;2023-04-23T09:24:50;95218.75;;;23.19;34.57
6096;BME280;25081;42.698;23.298;2023-04-23T09:27:00;95215.55;;;23.45;34.39
6096;BME280;25081;42.698;23.298;2023-04-23T09:29:14;95212.88;;;21.56;37.17
6096;BME280;25081;42.698;23.298;2023-04-23T09:31:25;95222.77;;;18.77;42.55
6096;BME280;25081;42.698;23.298;2023-04-23T09:33:36;95213.83;;;20.49;39.99
6096;BME280;25081;42.698;23.298;2023-04-23T09:35:47;95209.63;;;22.42;36.03
6096;BME280;25081;42.698;23.298;2023-04-23T09:37:57;95204.07;;;23.78;34.30
6096;BME280;25081;42.698;23.298;2023-04-23T09:40:09;95204.32;;;23.79;33.65
6096;BME280;25081;42.698;23.298;2023-04-23T09:42:20;95198.05;;;24.06;33.03
6096;BME280;25081;42.698;23.298;2023-04-23T09:44:31;95207.47;;;20.64;37.83
6096;BME280;25081;42.698;23.298;2023-04-23T09:46:42;95205.13;;;19.28;41.19
6096;BME280;25081;42.698;23.298;2023-04-23T09:48:52;95195.86;;;19.55;40.93
6096;BME280;25081;42.698;23.298;2023-04-23T09:51:03;95199.70;;;19.36;41.14
6096;BME280;25081;42.698;23.298;2023-04-23T09:53:13;95184.03;;;21.39;37.85
6096;BME280;25081;42.698;23.298;2023-04-23T09:55:29;95183.45;;;23.30;34.37
6096;BME280;25081;42.698;23.298;2023-04-23T09:57:40;95182.42;;;21.38;36.73
6096;BME280;25081;42.698;23.298;2023-04-23T09:59:50;95191.31;;;19.42;39.76
6096;BME280;25081;42.698;23.298;2023-04-23T10:02:03;95185.14;;;21.09;37.94
6096;BME280;25081;42.698;23.298;2023-04-23T10:04:13;95178.39;;;22.75;33.83
6096;BME280;25081;42.698;23.298;2023-04-23T10:06:28;95181.81;;;22.48;33.67
6096;BME280;25081;42.698;23.298;2023-04-23T10:08:38;95181.14;;;22.21;35.23
6096;BME280;25081;42.698;23.298;2023-04-23T10:13:13;95162.70;;;21.30;35.27
6096;BME280;25081;42.698;23.298;2023-04-23T10:15:25;95169.22;;;22.90;32.67
6096;BME280;25081;42.698;23.298;2023-04-23T10:17:35;95164.29;;;23.35;31.26
6096;BME280;25081;42.698;23.298;2023-04-23T10:19:46;95162.03;;;22.77;32.62
6096;BME280;25081;42.698;23.298;2023-04-23T10:21:57;95153.30;;;24.20;30.72
6096;BME280;25081;42.698;23.298;2023-04-23T10:24:07;95146.78;;;24.89;30.01
6096;BME280;25081;42.698;23.298;2023-04-23T10:26:18;95133.86;;;25.45;29.69
6096;BME280;25081;42.698;23.298;2023-04-23T10:28:28;95149.15;;;23.02;31.67
6096;BME280;25081;42.698;23.298;2023-04-23T10:30:39;95148.12;;;20.31;35.25
6096;BME280;25081;42.698;23.298;2023-04-23T10:32:50;95146.30;;;19.75;37.03
6096;BME280;25081;42.698;23.298;2023-04-23T10:35:00;95139.42;;;20.71;36.15
6096;BME280;25081;42.698;23.298;2023-04-23T10:37:10;95127.73;;;22.65;34.39
6096;BME280;25081;42.698;23.298;2023-04-23T10:39:22;95116.08;;;23.80;31.40
6096;BME280;25081;42.698;23.298;2023-04-23T10:41:34;95134.50;;;21.95;33.59
6096;BME280;25081;42.698;23.298;2023-04-23T10:43:44;95130.55;;;21.45;34.74
6096;BME280;25081;42.698;23.298;2023-04-23T10:45:54;95122.45;;;21.63;33.71
6096;BME280;25081;42.698;23.298;2023-04-23T10:48:05;95125.14;;;21.85;33.46
6096;BME280;25081;42.698;23.298;2023-04-23T10:50:24;95122.63;;;21.88;33.09
6096;BME280;25081;42.698;23.298;2023-04-23T10:52:34;95115.94;;;22.02;32.12
6096;BME280;25081;42.698;23.298;2023-04-23T10:54:46;95111.12;;;22.67;31.62
6096;BME280;25081;42.698;23.298;2023-04-23T10:56:59;95109.56;;;22.79;30.28
6096;BME280;25081;42.698;23.298;2023-04-23T10:59:18;95107.48;;;22.90;30.48
6096;BME280;25081;42.698;23.298;2023-04-23T11:01:29;95114.44;;;19.64;35.50
6096;BME280;25081;42.698;23.298;2023-04-23T11:03:40;95101.84;;;20.62;34.81
6096;BME280;25081;42.698;23.298;2023-04-23T11:05:50;95100.87;;;20.13;34.91
6096;BME280;25081;42.698;23.298;2023-04-23T11:08:05;95095.72;;;21.30;33.11
6096;BME280;25081;42.698;23.298;2023-04-23T11:10:23;95092.78;;;21.48;33.06
6096;BME280;25081;42.698;23.298;2023-04-23T11:12:33;95087.34;;;21.88;31.96
6096;BME280;25081;42.698;23.298;2023-04-23T11:14:46;95085.33;;;21.96;31.86
6096;BME280;25081;42.698;23.298;2023-04-23T11:16:56;95084.67;;;19.66;34.00
6096;BME280;25081;42.698;23.298;2023-04-23T11:19:09;95087.31;;;19.17;34.81
6096;BME280;25081;42.698;23.298;2023-04-23T11:21:20;95077.41;;;19.54;33.93
6096;BME280;25081;42.698;23.298;2023-04-23T11:23:30;95070.81;;;19.76;33.73
6096;BME280;25081;42.698;23.298;2023-04-23T11:25:41;95065.30;;;20.59;32.74
6096;BME280;25081;42.698;23.298;2023-04-23T11:27:52;95069.16;;;20.19;32.04
6096;BME280;25081;42.698;23.298;2023-04-23T11:30:03;95069.30;;;19.57;32.99
6096;BME280;25081;42.698;23.298;2023-04-23T11:32:14;95076.36;;;19.48;32.57
6096;BME280;25081;42.698;23.298;2023-04-23T11:34:24;95074.77;;;19.39;32.27
6096;BME280;25081;42.698;23.298;2023-04-23T11:36:34;95065.73;;;19.66;32.94
6096;BME280;25081;42.698;23.298;2023-04-23T11:38:45;95070.45;;;19.38;31.50